createdAt,value
2023-01-26T00:00:46.839Z,6.25
2023-01-26T00:02:48.932Z,6.27
2023-01-26T00:04:51.263Z,6.28
2023-01-26T00:06:53.386Z,6.17
2023-01-26T00:08:59.590Z,6.16
2023-01-26T00:11:05.506Z,6.07
2023-01-26T00:13:10.198Z,6.10
2023-01-26T00:15:14.981Z,6.11
2023-01-26T00:17:26.404Z,6.09
2023-01-26T00:19:28.493Z,6.14
2023-01-26T00:21:32.953Z,6.18
2023-01-26T00:23:37.134Z,6.18
2023-01-26T00:25:40.604Z,6.18
2023-01-26T00:27:42.619Z,6.18
2023-01-26T00:29:45.979Z,6.21
2023-01-26T00:31:48.152Z,6.15
2023-01-26T00:33:50.997Z,6.23
2023-01-26T00:35:56.006Z,6.26
2023-01-26T00:37:58.239Z,6.27
2023-01-26T00:40:00.288Z,6.22
2023-01-26T00:42:11.634Z,6.15
2023-01-26T00:44:13.763Z,6.17
2023-01-26T00:46:15.918Z,6.15
2023-01-26T00:48:22.465Z,6.20
2023-01-26T00:50:25.680Z,6.22
2023-01-26T00:52:27.711Z,6.21
2023-01-26T00:54:30.594Z,6.24
2023-01-26T00:56:32.718Z,6.18
2023-01-26T00:58:34.820Z,6.19
2023-01-26T01:00:38.986Z,6.20
2023-01-26T01:02:41.312Z,6.20
2023-01-26T01:04:43.363Z,6.18
2023-01-26T01:06:48.208Z,6.21
2023-01-26T01:08:50.446Z,6.25
2023-01-26T01:11:03.486Z,6.28
2023-01-26T01:13:05.474Z,6.35
2023-01-26T01:15:08.889Z,6.30
2023-01-26T01:17:11.114Z,6.24
2023-01-26T01:19:16.598Z,6.26
2023-01-26T01:21:21.489Z,6.29
2023-01-26T01:23:23.632Z,6.29
2023-01-26T01:25:25.952Z,6.31
2023-01-26T01:27:28.281Z,6.29
2023-01-26T01:29:30.453Z,6.33
2023-01-26T01:31:33.508Z,6.36
2023-01-26T01:33:35.635Z,6.43
2023-01-26T01:35:38.201Z,6.38
2023-01-26T01:37:40.200Z,6.40
2023-01-26T01:39:42.772Z,6.33
2023-01-26T01:41:45.037Z,6.36
2023-01-26T01:43:47.505Z,6.39
2023-01-26T01:45:51.399Z,6.42
2023-01-26T01:47:57.752Z,6.45
2023-01-26T01:50:02.575Z,6.44
2023-01-26T01:52:11.266Z,6.43
2023-01-26T01:54:17.669Z,6.43
2023-01-26T01:56:23.904Z,6.46
2023-01-26T01:58:30.515Z,6.38
2023-01-26T02:00:33.203Z,6.44
2023-01-26T02:02:38.030Z,6.46
2023-01-26T02:04:40.233Z,6.48
2023-01-26T02:06:52.074Z,6.43
2023-01-26T02:08:56.298Z,6.40
2023-01-26T02:11:02.565Z,6.36
2023-01-26T02:13:05.686Z,6.35
2023-01-26T02:15:08.915Z,6.41
2023-01-26T02:17:11.122Z,6.40
2023-01-26T02:19:22.484Z,6.41
2023-01-26T02:21:24.799Z,6.38
2023-01-26T02:23:48.634Z,6.36
2023-01-26T02:25:52.976Z,6.40
2023-01-26T02:27:55.117Z,6.39
2023-01-26T02:30:00.823Z,6.37
2023-01-26T02:32:03.265Z,6.46
2023-01-26T02:34:05.513Z,6.38
2023-01-26T02:36:10.829Z,6.43
2023-01-26T02:38:15.024Z,6.50
2023-01-26T02:40:25.218Z,6.41
2023-01-26T02:42:41.240Z,6.46
2023-01-26T02:44:44.510Z,6.48
2023-01-26T02:46:47.416Z,6.40
2023-01-26T02:49:09.662Z,6.43
2023-01-26T02:51:11.661Z,6.45
2023-01-26T02:53:13.845Z,6.36
2023-01-26T02:55:30.818Z,6.41
2023-01-26T02:57:35.343Z,6.38
2023-01-26T02:59:37.899Z,6.38
2023-01-26T03:01:40.345Z,6.35
2023-01-26T03:03:42.408Z,6.41
2023-01-26T03:05:44.916Z,6.41
2023-01-26T03:07:48.016Z,6.37
2023-01-26T03:09:50.384Z,6.36
2023-01-26T03:11:52.291Z,6.32
2023-01-26T03:13:54.527Z,6.42
2023-01-26T03:15:56.794Z,6.37
2023-01-26T03:18:28.200Z,6.38
2023-01-26T03:20:49.064Z,6.41
2023-01-26T03:23:14.441Z,6.39
2023-01-26T03:25:36.955Z,6.45
2023-01-26T03:27:49.359Z,6.43
2023-01-26T03:29:51.729Z,6.45
2023-01-26T03:31:54.512Z,6.36
2023-01-26T03:33:56.581Z,6.43
2023-01-26T03:35:58.694Z,6.45
2023-01-26T03:38:04.333Z,6.38
2023-01-26T03:40:41.590Z,6.35
2023-01-26T03:43:02.541Z,6.34
2023-01-26T03:45:24.508Z,6.37
2023-01-26T03:47:45.437Z,6.39
2023-01-26T03:50:05.912Z,6.33
2023-01-26T03:52:27.019Z,6.29
2023-01-26T03:54:47.915Z,6.35
2023-01-26T03:56:50.706Z,6.27
2023-01-26T03:58:58.272Z,6.32
2023-01-26T04:01:03.719Z,6.29
2023-01-26T04:03:24.424Z,6.31
2023-01-26T04:05:45.451Z,6.31
2023-01-26T04:08:06.668Z,6.24
2023-01-26T04:10:10.077Z,6.25
2023-01-26T04:12:14.305Z,6.23
2023-01-26T04:15:03.879Z,6.22
2023-01-26T04:17:26.428Z,6.26
2023-01-26T04:19:48.669Z,6.22
2023-01-26T04:21:50.929Z,6.15
2023-01-26T04:23:56.669Z,6.20
2023-01-26T04:25:59.593Z,6.22
2023-01-26T04:28:02.099Z,6.23
2023-01-26T04:30:06.226Z,6.24
2023-01-26T04:32:08.782Z,6.19
2023-01-26T04:34:13.400Z,6.15
2023-01-26T04:36:16.157Z,6.18
2023-01-26T04:38:22.146Z,6.14
2023-01-26T04:40:24.671Z,6.10
2023-01-26T04:42:26.767Z,6.07
2023-01-26T04:44:30.605Z,6.09
2023-01-26T04:46:33.559Z,6.06
2023-01-26T04:48:37.721Z,6.09
2023-01-26T04:50:42.425Z,6.09
2023-01-26T04:52:44.635Z,6.04
2023-01-26T04:54:46.649Z,6.02
2023-01-26T04:56:49.529Z,6.00
2023-01-26T04:58:52.928Z,6.04
2023-01-26T05:00:57.699Z,6.07
2023-01-26T05:03:02.923Z,6.09
2023-01-26T05:05:07.916Z,6.04
2023-01-26T05:07:10.183Z,6.02
2023-01-26T05:09:13.640Z,6.04
2023-01-26T05:11:18.550Z,6.01
2023-01-26T05:13:36.311Z,6.15
2023-01-26T05:15:49.582Z,6.08
2023-01-26T05:18:14.497Z,6.09
2023-01-26T05:20:28.525Z,6.13
2023-01-26T05:22:51.378Z,6.13
2023-01-26T05:25:13.389Z,6.13
2023-01-26T05:27:23.009Z,6.16
2023-01-26T05:29:32.588Z,6.13
2023-01-26T05:31:34.934Z,6.07
2023-01-26T05:33:37.390Z,6.09
2023-01-26T05:35:40.025Z,6.08
2023-01-26T05:37:45.934Z,6.06
2023-01-26T05:39:49.304Z,6.13
2023-01-26T05:41:51.825Z,6.05
2023-01-26T05:43:53.875Z,6.11
2023-01-26T05:46:10.853Z,6.15
2023-01-26T05:48:17.724Z,6.14
2023-01-26T05:50:21.156Z,6.10
2023-01-26T05:52:46.702Z,6.07
2023-01-26T05:54:51.311Z,6.03
2023-01-26T05:56:54.144Z,5.99
2023-01-26T05:58:57.228Z,6.03
2023-01-26T06:01:04.595Z,6.02
2023-01-26T06:03:13.892Z,6.00
2023-01-26T06:05:16.132Z,6.11
2023-01-26T06:07:20.054Z,6.06
2023-01-26T06:09:30.714Z,6.04
2023-01-26T06:12:03.915Z,5.97
2023-01-26T06:14:29.539Z,6.09
2023-01-26T06:16:31.635Z,6.04
2023-01-26T06:18:36.857Z,6.13
2023-01-26T06:20:39.396Z,6.15
2023-01-26T06:22:41.739Z,6.04
2023-01-26T06:24:43.890Z,6.09
2023-01-26T06:26:48.959Z,5.99
2023-01-26T06:28:54.059Z,6.14
2023-01-26T06:31:01.409Z,6.12
2023-01-26T06:33:04.419Z,6.09
2023-01-26T06:35:10.059Z,6.11
2023-01-26T06:37:14.144Z,6.01
2023-01-26T06:39:17.341Z,6.08
2023-01-26T06:41:19.963Z,6.03
2023-01-26T06:43:25.279Z,6.02
2023-01-26T06:45:27.833Z,6.03
2023-01-26T06:47:31.092Z,6.04
2023-01-26T06:49:34.892Z,6.12
2023-01-26T06:51:43.458Z,6.06
2023-01-26T06:53:56.704Z,6.06
2023-01-26T06:56:07.355Z,6.09
2023-01-26T06:58:18.301Z,6.02
2023-01-26T07:00:39.869Z,6.07
2023-01-26T07:02:59.840Z,6.03
2023-01-26T07:05:02.058Z,6.00
2023-01-26T07:07:08.857Z,6.04
2023-01-26T07:09:11.484Z,6.03
2023-01-26T07:11:14.005Z,6.07
2023-01-26T07:13:16.551Z,6.15
2023-01-26T07:15:18.499Z,6.06
2023-01-26T07:17:20.970Z,6.05
2023-01-26T07:19:22.934Z,6.08
2023-01-26T07:21:25.232Z,6.08
2023-01-26T07:23:27.567Z,6.07
2023-01-26T07:25:30.385Z,6.09
2023-01-26T07:27:32.447Z,6.10
2023-01-26T07:29:34.824Z,6.13
2023-01-26T07:31:38.315Z,6.12
2023-01-26T07:33:40.799Z,6.02
2023-01-26T07:35:45.706Z,6.09
2023-01-26T07:37:47.651Z,6.01
2023-01-26T07:39:50.180Z,6.04
2023-01-26T07:41:52.360Z,6.12
2023-01-26T07:44:12.942Z,6.19
2023-01-26T07:46:15.454Z,6.11
2023-01-26T07:48:22.621Z,6.10
2023-01-26T07:50:28.218Z,6.12
2023-01-26T07:52:30.849Z,6.15
2023-01-26T07:54:36.223Z,6.13
2023-01-26T07:56:38.618Z,6.13
2023-01-26T07:58:41.374Z,6.20
2023-01-26T08:00:47.448Z,6.17
2023-01-26T08:02:55.825Z,6.16
2023-01-26T08:04:58.146Z,6.10
2023-01-26T08:07:00.955Z,6.21
2023-01-26T08:09:03.467Z,6.19
2023-01-26T08:11:06.190Z,6.15
2023-01-26T08:13:10.832Z,6.23
2023-01-26T08:15:13.109Z,6.27
2023-01-26T08:17:17.658Z,6.29
2023-01-26T08:19:20.566Z,6.29
2023-01-26T08:21:22.688Z,6.31
2023-01-26T08:23:28.013Z,6.26
2023-01-26T08:25:30.450Z,6.27
2023-01-26T08:27:32.660Z,6.25
2023-01-26T08:29:34.732Z,6.29
2023-01-26T08:31:37.806Z,6.33
2023-01-26T08:33:42.661Z,6.39
2023-01-26T08:35:45.163Z,6.31
2023-01-26T08:37:47.043Z,6.39
2023-01-26T08:39:49.314Z,6.39
2023-01-26T08:41:51.486Z,6.39
2023-01-26T08:43:53.807Z,6.45
2023-01-26T08:45:56.200Z,6.39
2023-01-26T08:47:58.531Z,6.38
2023-01-26T08:50:01.052Z,6.46
2023-01-26T08:52:03.769Z,6.42
2023-01-26T08:54:08.425Z,6.41
2023-01-26T08:56:13.167Z,6.40
2023-01-26T08:58:15.400Z,6.52
2023-01-26T09:00:17.886Z,6.55
2023-01-26T09:02:20.650Z,6.46
2023-01-26T09:04:23.100Z,6.45
2023-01-26T09:06:25.553Z,6.49
2023-01-26T09:08:28.766Z,6.48
2023-01-26T09:10:32.159Z,6.44
2023-01-26T09:12:36.664Z,6.44
2023-01-26T09:14:38.714Z,6.53
2023-01-26T09:16:41.317Z,6.55
2023-01-26T09:18:43.561Z,6.59
2023-01-26T09:20:46.036Z,6.62
2023-01-26T09:22:48.339Z,6.60
2023-01-26T09:24:50.893Z,6.61
2023-01-26T09:26:53.062Z,6.57
2023-01-26T09:28:55.469Z,6.53
2023-01-26T09:31:00.818Z,6.58
2023-01-26T09:33:05.114Z,6.63
2023-01-26T09:35:14.268Z,6.57
2023-01-26T09:37:17.477Z,6.61
2023-01-26T09:39:19.651Z,6.61
2023-01-26T09:42:15.602Z,6.61
2023-01-26T09:44:24.918Z,6.69
2023-01-26T09:47:05.940Z,6.65
2023-01-26T09:49:17.536Z,6.68
2023-01-26T09:51:33.736Z,6.69
2023-01-26T09:53:53.126Z,6.60
2023-01-26T09:55:56.296Z,6.74
2023-01-26T09:58:10.710Z,6.61
2023-01-26T10:00:21.856Z,6.66
2023-01-26T10:02:41.215Z,6.68
2023-01-26T10:04:46.936Z,6.76
2023-01-26T10:06:49.781Z,6.78
2023-01-26T10:09:01.144Z,6.75
2023-01-26T10:11:11.986Z,6.82
2023-01-26T10:13:16.869Z,6.93
2023-01-26T10:15:21.800Z,6.87
2023-01-26T10:17:38.032Z,6.90
2023-01-26T10:19:45.630Z,6.90
2023-01-26T10:21:51.895Z,6.81
2023-01-26T10:23:55.669Z,6.90
2023-01-26T10:26:13.235Z,6.93
2023-01-26T10:28:18.781Z,7.04
2023-01-26T10:30:21.509Z,7.10
2023-01-26T10:32:24.325Z,7.07
2023-01-26T10:34:28.425Z,7.04
2023-01-26T10:36:32.144Z,7.04
2023-01-26T10:38:34.095Z,7.09
2023-01-26T10:40:45.636Z,7.03
2023-01-26T10:42:57.501Z,7.11
2023-01-26T10:45:02.487Z,7.22
2023-01-26T10:47:16.600Z,7.22
2023-01-26T10:49:20.535Z,7.25
2023-01-26T10:51:35.956Z,7.13
2023-01-26T10:53:38.399Z,7.17
2023-01-26T10:55:41.781Z,7.26
2023-01-26T10:57:44.566Z,7.23
2023-01-26T11:00:08.943Z,7.28
2023-01-26T11:02:23.388Z,7.38
2023-01-26T11:04:26.020Z,7.40
2023-01-26T11:06:30.066Z,7.44
2023-01-26T11:08:38.046Z,7.39
2023-01-26T11:10:54.292Z,7.38
2023-01-26T11:13:21.956Z,7.45
2023-01-26T11:15:27.867Z,7.51
2023-01-26T11:17:47.489Z,7.49
2023-01-26T11:20:16.638Z,7.52
2023-01-26T11:22:38.564Z,7.57
2023-01-26T11:24:55.341Z,7.56
2023-01-26T11:27:32.905Z,7.59
2023-01-26T11:29:50.444Z,7.58
2023-01-26T11:32:14.176Z,7.58
2023-01-26T11:34:29.689Z,7.69
2023-01-26T11:36:37.795Z,7.61
2023-01-26T11:38:41.931Z,7.68
2023-01-26T11:40:58.755Z,7.70
2023-01-26T11:43:15.903Z,7.73
2023-01-26T11:45:32.154Z,7.83
2023-01-26T11:48:28.915Z,7.87
2023-01-26T11:50:37.523Z,7.80
2023-01-26T11:53:20.621Z,7.73
2023-01-26T11:55:38.854Z,7.83
2023-01-26T11:58:02.390Z,7.85
2023-01-26T12:00:28.965Z,7.90
2023-01-26T12:02:38.876Z,7.87
2023-01-26T12:04:47.108Z,7.83
2023-01-26T12:06:58.578Z,7.83
2023-01-26T12:09:13.436Z,7.89
2023-01-26T12:11:31.887Z,7.90
2023-01-26T12:13:40.838Z,7.89
2023-01-26T12:15:52.687Z,7.96
2023-01-26T12:18:42.109Z,7.91
2023-01-26T12:21:00.715Z,7.92
2023-01-26T12:23:05.283Z,8.00
2023-01-26T12:25:38.429Z,7.80
2023-01-26T12:27:56.377Z,7.78
2023-01-26T12:30:34.410Z,7.76
2023-01-26T12:32:36.820Z,7.89
2023-01-26T12:34:39.542Z,7.92
2023-01-26T12:37:02.014Z,7.91
2023-01-26T12:39:11.361Z,7.90
2023-01-26T12:41:35.732Z,7.89
2023-01-26T12:43:52.935Z,7.96
2023-01-26T12:45:59.236Z,7.98
2023-01-26T12:48:16.193Z,7.95
2023-01-26T12:50:27.171Z,7.96
2023-01-26T12:52:33.552Z,8.01
2023-01-26T12:55:00.327Z,7.94
2023-01-26T12:57:07.081Z,8.00
2023-01-26T12:59:38.646Z,7.92
2023-01-26T13:01:43.485Z,7.90
2023-01-26T13:03:51.359Z,7.80
2023-01-26T13:06:02.793Z,7.78
2023-01-26T13:08:31.081Z,7.77
2023-01-26T13:10:49.828Z,7.71
2023-01-26T13:12:56.596Z,7.82
2023-01-26T13:15:00.917Z,7.80
2023-01-26T13:17:15.345Z,7.85
2023-01-26T13:20:00.051Z,7.90
2023-01-26T13:22:03.387Z,7.96
2023-01-26T13:24:17.711Z,7.75
2023-01-26T13:26:26.238Z,7.83
2023-01-26T13:28:29.520Z,7.78
2023-01-26T13:30:31.710Z,7.76
2023-01-26T13:32:36.697Z,7.68
2023-01-26T13:34:43.373Z,7.72
2023-01-26T13:36:48.005Z,7.71
2023-01-26T13:39:01.659Z,7.66
2023-01-26T13:41:10.636Z,7.70
2023-01-26T13:43:31.381Z,7.67
2023-01-26T13:46:11.803Z,7.67
2023-01-26T13:48:19.019Z,7.68
2023-01-26T13:50:38.475Z,7.62
2023-01-26T13:52:42.842Z,7.70
2023-01-26T13:54:46.075Z,7.71
2023-01-26T13:57:04.203Z,7.63
2023-01-26T13:59:14.833Z,7.71
2023-01-26T14:01:17.495Z,7.85
2023-01-26T14:03:23.797Z,7.78
2023-01-26T14:05:26.033Z,7.85
2023-01-26T14:07:33.031Z,7.84
2023-01-26T14:09:47.235Z,7.79
2023-01-26T14:11:57.983Z,7.78
2023-01-26T14:14:01.803Z,7.77
2023-01-26T14:16:08.667Z,7.74
2023-01-26T14:18:22.012Z,7.75
2023-01-26T14:20:36.288Z,7.61
2023-01-26T14:22:38.864Z,7.74
2023-01-26T14:24:42.802Z,7.68
2023-01-26T14:26:45.022Z,7.75
2023-01-26T14:28:47.554Z,7.67
2023-01-26T14:30:59.468Z,7.67
2023-01-26T14:33:11.608Z,7.58
2023-01-26T14:35:23.258Z,7.61
2023-01-26T14:37:26.767Z,7.63
2023-01-26T14:39:28.841Z,7.63
2023-01-26T14:41:33.888Z,7.63
2023-01-26T14:43:35.902Z,7.67
2023-01-26T14:45:41.363Z,7.57
2023-01-26T14:47:45.445Z,7.57
2023-01-26T14:49:53.366Z,7.53
2023-01-26T14:51:58.677Z,7.50
2023-01-26T14:54:07.249Z,7.40
2023-01-26T14:56:21.488Z,7.26
2023-01-26T14:58:29.400Z,7.36
2023-01-26T15:00:35.795Z,7.43
2023-01-26T15:02:43.833Z,7.45
2023-01-26T15:04:55.335Z,7.43
2023-01-26T15:06:57.326Z,7.43
2023-01-26T15:09:20.055Z,7.31
2023-01-26T15:12:13.656Z,7.27
2023-01-26T15:14:32.596Z,7.14
2023-01-26T15:16:52.740Z,7.13
2023-01-26T15:18:58.818Z,7.20
2023-01-26T15:21:21.076Z,7.09
2023-01-26T15:23:32.485Z,7.12
2023-01-26T15:25:34.752Z,7.19
2023-01-26T15:27:37.166Z,7.18
2023-01-26T15:29:39.376Z,7.14
2023-01-26T15:31:43.044Z,7.14
2023-01-26T15:33:55.250Z,7.10
2023-01-26T15:35:58.598Z,7.15
2023-01-26T15:38:06.404Z,7.15
2023-01-26T15:40:09.661Z,7.14
2023-01-26T15:42:12.443Z,7.09
2023-01-26T15:44:21.670Z,6.96
2023-01-26T15:46:24.382Z,6.93
2023-01-26T15:48:27.017Z,6.91
2023-01-26T15:50:29.219Z,6.86
2023-01-26T15:52:33.240Z,6.73
2023-01-26T15:54:37.835Z,6.91
2023-01-26T15:56:40.167Z,6.94
2023-01-26T15:58:42.768Z,6.91
2023-01-26T16:00:45.172Z,6.96
2023-01-26T16:02:47.372Z,6.94
2023-01-26T16:04:49.651Z,6.91
2023-01-26T16:06:51.540Z,6.88
2023-01-26T16:08:55.319Z,6.90
2023-01-26T16:10:58.200Z,6.81
2023-01-26T16:13:00.273Z,6.84
2023-01-26T16:15:02.796Z,6.72
2023-01-26T16:17:14.572Z,6.62
2023-01-26T16:19:33.748Z,6.68
2023-01-26T16:21:41.045Z,6.66
2023-01-26T16:23:43.803Z,6.75
2023-01-26T16:25:46.739Z,6.73
2023-01-26T16:28:14.333Z,6.72
2023-01-26T16:30:17.215Z,6.76
2023-01-26T16:32:29.235Z,6.70
2023-01-26T16:38:32.547Z,6.59
2023-01-26T16:40:34.634Z,6.58
2023-01-26T16:42:40.514Z,6.70
2023-01-26T16:44:42.682Z,6.64
2023-01-26T16:46:48.040Z,6.66
2023-01-26T16:48:51.192Z,6.71
2023-01-26T16:50:54.262Z,6.70
2023-01-26T16:52:56.276Z,6.68
2023-01-26T16:54:59.335Z,6.66
2023-01-26T16:57:01.441Z,6.60
2023-01-26T16:59:05.896Z,6.66
2023-01-26T17:01:17.040Z,6.65
2023-01-26T17:03:19.183Z,6.65
2023-01-26T17:05:22.388Z,6.66
2023-01-26T17:07:24.590Z,6.65
2023-01-26T17:09:26.845Z,6.67
2023-01-26T17:11:29.564Z,6.73
2023-01-26T17:13:31.670Z,6.76
2023-01-26T17:15:34.272Z,6.80
2023-01-26T17:17:36.353Z,6.78
2023-01-26T17:19:38.389Z,6.82
2023-01-26T17:21:40.794Z,6.82
2023-01-26T17:23:44.782Z,6.81
2023-01-26T17:25:46.687Z,6.87
2023-01-26T17:27:50.046Z,6.85
2023-01-26T17:29:52.236Z,6.85
2023-01-26T17:31:54.532Z,6.76
2023-01-26T17:33:56.690Z,6.81
2023-01-26T17:36:02.852Z,6.70
2023-01-26T17:38:05.327Z,6.76
2023-01-26T17:40:11.340Z,6.67
2023-01-26T17:42:14.542Z,6.74
2023-01-26T17:44:16.756Z,6.78
2023-01-26T17:46:20.925Z,6.72
2023-01-26T17:48:22.778Z,6.76
2023-01-26T17:50:25.139Z,6.63
2023-01-26T17:52:27.769Z,6.51
2023-01-26T17:54:29.703Z,6.55
2023-01-26T17:56:31.661Z,6.56
2023-01-26T17:58:34.067Z,6.53
2023-01-26T18:00:36.115Z,6.48
2023-01-26T18:02:38.361Z,6.55
2023-01-26T18:04:40.423Z,6.56
2023-01-26T18:06:42.519Z,6.49
2023-01-26T18:08:44.824Z,6.56
2023-01-26T18:10:50.843Z,6.49
2023-01-26T18:12:52.807Z,6.51
2023-01-26T18:14:55.296Z,6.54
2023-01-26T18:16:57.383Z,6.47
2023-01-26T18:19:04.784Z,6.40
2023-01-26T18:21:17.077Z,6.41
2023-01-26T18:23:20.200Z,6.46
2023-01-26T18:25:22.738Z,6.41
2023-01-26T18:27:25.421Z,6.46
2023-01-26T18:29:27.342Z,6.51
2023-01-26T18:31:36.779Z,6.47
2023-01-26T18:33:39.097Z,6.47
2023-01-26T18:35:41.282Z,6.41
2023-01-26T18:37:43.325Z,6.43
2023-01-26T18:39:45.591Z,6.40
2023-01-26T18:41:47.769Z,6.38
2023-01-26T18:43:51.554Z,6.40
2023-01-26T18:45:53.692Z,6.37
2023-01-26T18:47:56.000Z,6.22
2023-01-26T18:49:58.007Z,6.24
2023-01-26T18:52:00.180Z,6.28
2023-01-26T18:54:04.485Z,6.14
2023-01-26T18:56:09.798Z,6.09
2023-01-26T18:58:12.339Z,6.06
2023-01-26T19:00:15.022Z,6.14
2023-01-26T19:02:17.257Z,6.14
2023-01-26T19:04:19.585Z,6.07
2023-01-26T19:06:23.594Z,6.11
2023-01-26T19:08:25.731Z,6.12
2023-01-26T19:10:27.758Z,6.17
2023-01-26T19:12:29.796Z,6.15
2023-01-26T19:14:35.626Z,6.19
2023-01-26T19:16:38.180Z,6.23
2023-01-26T19:18:40.301Z,6.20
2023-01-26T19:20:42.648Z,6.21
2023-01-26T19:22:46.319Z,6.26
2023-01-26T19:24:48.322Z,6.22
2023-01-26T19:26:50.560Z,6.23
2023-01-26T19:28:54.872Z,6.23
2023-01-26T19:31:03.907Z,6.23
2023-01-26T19:33:24.256Z,6.23
2023-01-26T19:35:26.433Z,6.17
2023-01-26T19:37:28.394Z,6.07
2023-01-26T19:39:31.324Z,6.17
2023-01-26T19:41:33.912Z,6.10
2023-01-26T19:43:36.069Z,6.17
2023-01-26T19:45:38.850Z,6.08
2023-01-26T19:47:41.878Z,6.08
2023-01-26T19:49:43.968Z,6.06
2023-01-26T19:51:46.167Z,6.08
2023-01-26T19:53:50.440Z,6.05
2023-01-26T19:55:55.575Z,5.99
2023-01-26T19:58:00.608Z,6.03
2023-01-26T20:00:07.293Z,5.96
2023-01-26T20:02:14.315Z,5.96
2023-01-26T20:04:16.572Z,6.00
2023-01-26T20:06:21.457Z,6.02
2023-01-26T20:08:24.415Z,6.05
2023-01-26T20:10:26.604Z,5.98
2023-01-26T20:12:28.995Z,5.95
2023-01-26T20:14:31.180Z,5.96
2023-01-26T20:16:34.565Z,5.90
2023-01-26T20:18:37.320Z,5.92
2023-01-26T20:20:39.635Z,5.90
2023-01-26T20:22:41.803Z,5.87
2023-01-26T20:24:44.279Z,5.94
2023-01-26T20:26:46.625Z,5.95
2023-01-26T20:28:49.177Z,5.97
2023-01-26T20:30:51.366Z,6.03
2023-01-26T20:32:54.803Z,5.92
2023-01-26T20:34:58.100Z,5.97
2023-01-26T20:37:00.502Z,6.02
2023-01-26T20:39:04.333Z,5.96
2023-01-26T20:41:12.185Z,5.97
2023-01-26T20:43:16.200Z,5.99
2023-01-26T20:45:18.836Z,5.94
2023-01-26T20:47:22.820Z,5.93
2023-01-26T20:49:25.323Z,5.94
2023-01-26T20:51:33.674Z,5.89
2023-01-26T20:53:36.121Z,5.92
2023-01-26T20:55:38.255Z,5.88
2023-01-26T20:57:40.542Z,5.88
2023-01-26T20:59:46.307Z,5.78
2023-01-26T21:01:48.525Z,5.87
2023-01-26T21:03:51.767Z,5.80
2023-01-26T21:05:56.825Z,5.82
2023-01-26T21:07:59.085Z,5.89
2023-01-26T21:10:01.691Z,5.90
2023-01-26T21:12:04.004Z,5.86
2023-01-26T21:14:06.638Z,5.84
2023-01-26T21:16:16.860Z,5.85
2023-01-26T21:18:19.184Z,5.89
2023-01-26T21:20:21.426Z,5.89
2023-01-26T21:22:23.749Z,5.85
2023-01-26T21:24:26.279Z,5.88
2023-01-26T21:26:28.852Z,5.87
2023-01-26T21:28:31.910Z,5.90
2023-01-26T21:30:34.182Z,5.81
2023-01-26T21:32:36.453Z,5.85
2023-01-26T21:34:38.544Z,5.85
2023-01-26T21:36:40.697Z,5.87
2023-01-26T21:38:45.437Z,5.86
2023-01-26T21:40:47.602Z,5.91
2023-01-26T21:42:49.773Z,5.92
2023-01-26T21:45:14.777Z,5.90
2023-01-26T21:47:19.789Z,5.91
2023-01-26T21:49:22.839Z,5.83
2023-01-26T21:51:44.854Z,5.83
2023-01-26T21:53:47.970Z,5.82
2023-01-26T21:55:50.272Z,5.79
2023-01-26T21:58:10.841Z,5.77
2023-01-26T22:00:13.693Z,5.76
2023-01-26T22:02:15.896Z,5.73
2023-01-26T22:04:24.387Z,5.74
2023-01-26T22:06:26.812Z,5.72
2023-01-26T22:08:30.611Z,5.60
2023-01-26T22:10:32.647Z,5.67
2023-01-26T22:12:34.920Z,5.60
2023-01-26T22:14:40.175Z,5.60
2023-01-26T22:16:42.900Z,5.63
2023-01-26T22:18:46.148Z,5.63
2023-01-26T22:20:48.333Z,5.66
2023-01-26T22:22:50.567Z,5.71
2023-01-26T22:24:54.019Z,5.58
2023-01-26T22:26:56.067Z,5.67
2023-01-26T22:28:59.033Z,5.67
2023-01-26T22:31:03.644Z,5.67
2023-01-26T22:33:06.124Z,5.66
2023-01-26T22:35:08.564Z,5.57
2023-01-26T22:37:10.735Z,5.56
2023-01-26T22:39:12.982Z,5.62
2023-01-26T22:41:19.808Z,5.60
2023-01-26T22:43:22.650Z,5.61
2023-01-26T22:45:25.124Z,5.62
2023-01-26T22:47:27.479Z,5.65
2023-01-26T22:49:30.104Z,5.66
2023-01-26T22:51:37.085Z,5.64
2023-01-26T22:53:40.165Z,5.71
2023-01-26T22:55:43.268Z,5.58
2023-01-26T22:57:48.348Z,5.64
2023-01-26T22:59:50.754Z,5.60
2023-01-26T23:01:53.079Z,5.59
2023-01-26T23:03:56.336Z,5.60
2023-01-26T23:06:03.164Z,5.62
2023-01-26T23:08:05.616Z,5.63
2023-01-26T23:10:08.073Z,5.66
2023-01-26T23:12:10.243Z,5.61
2023-01-26T23:14:12.291Z,5.62
2023-01-26T23:16:14.811Z,5.59
2023-01-26T23:18:17.521Z,5.58
2023-01-26T23:20:21.018Z,5.66
2023-01-26T23:22:23.675Z,5.64
2023-01-26T23:24:25.808Z,5.65
2023-01-26T23:26:28.091Z,5.61
2023-01-26T23:28:32.997Z,5.64
2023-01-26T23:30:35.300Z,5.72
2023-01-26T23:32:37.728Z,5.72
2023-01-26T23:34:39.992Z,5.60
2023-01-26T23:36:42.040Z,5.63
2023-01-26T23:38:45.898Z,5.65
2023-01-26T23:40:49.823Z,5.60
2023-01-26T23:43:03.672Z,5.65
2023-01-26T23:45:12.841Z,5.63
2023-01-26T23:47:15.262Z,5.64
2023-01-26T23:49:19.318Z,5.70
2023-01-26T23:51:21.564Z,5.65
2023-01-26T23:53:24.303Z,5.65
2023-01-26T23:55:26.705Z,5.65
2023-01-26T23:57:28.877Z,5.63
2023-01-26T23:59:31.538Z,5.61
